Time;durP1;ratioP1;P1;durP2;ratioP2;P2;SDS_P1;SDS_P2;PMS_P1;PMS_P2;Temp;Humidity;BMP_temperature;BMP_pressure;BME280_temperature;BME280_humidity;BME280_pressure;Samples;Min_cycle;Max_cycle;Signal;HPM_P1;HPM_P2
2022/03/15 00:01:24;;;;;;;43.80;19.40;;;;;;;2.16;42.07;99879.02;106448;1273;22750;-76
2022/03/15 00:03:50;;;;;;;50.20;22.10;;;;;;;2.15;42.04;99875.95;106377;1273;24257;-76
2022/03/15 00:06:16;;;;;;;48.80;19.90;;;;;;;2.12;42.11;99875.83;106172;1274;137918;-76
2022/03/15 00:08:44;;;;;;;40.70;19.00;;;;;;;2.11;42.11;99881.48;106251;1274;30309;-76
2022/03/15 00:11:11;;;;;;;50.60;21.20;;;;;;;2.10;42.23;99878.70;106318;1273;137462;-76
2022/03/15 00:13:39;;;;;;;54.00;21.80;;;;;;;2.09;42.20;99869.83;106327;1273;22563;-76
2022/03/15 00:16:07;;;;;;;49.10;22.10;;;;;;;2.07;42.26;99874.27;106423;1273;24346;-78
2022/03/15 00:18:33;;;;;;;49.70;20.70;;;;;;;2.04;42.28;99881.27;106108;1273;137691;-78
2022/03/15 00:21:02;;;;;;;43.40;19.20;;;;;;;2.00;42.62;99876.84;106356;1273;22573;-78
2022/03/15 00:23:29;;;;;;;49.10;20.80;;;;;;;1.98;42.73;99870.84;106152;1273;137701;-78
2022/03/15 00:25:56;;;;;;;47.60;19.80;;;;;;;1.94;42.99;99871.21;106505;1273;22689;-76
2022/03/15 00:28:38;;;;;;;40.70;17.90;;;;;;;1.90;42.93;99877.71;105998;1274;137820;-76
2022/03/15 00:31:04;;;;;;;41.50;18.80;;;;;;;1.87;43.00;99877.60;106047;1274;22575;-76
2022/03/15 00:33:45;;;;;;;42.70;18.90;;;;;;;1.87;43.08;99873.49;106123;1274;25368;-76
2022/03/15 00:36:14;;;;;;;45.50;20.90;;;;;;;1.85;43.50;99874.73;106174;1274;137980;-76
2022/03/15 00:38:41;;;;;;;42.10;19.80;;;;;;;1.83;43.42;99875.73;106275;1274;25586;-77
2022/03/15 00:41:10;;;;;;;42.00;18.90;;;;;;;1.80;43.43;99878.64;106470;1273;137706;-76
2022/03/15 00:43:36;;;;;;;47.20;19.30;;;;;;;1.78;43.67;99872.91;106463;1273;24419;-76
2022/03/15 00:46:02;;;;;;;45.10;20.60;;;;;;;1.75;43.60;99872.55;106136;1274;22547;-76
2022/03/15 00:48:29;;;;;;;50.80;21.50;;;;;;;1.71;43.74;99870.77;106497;1273;137976;-76
2022/03/15 00:50:55;;;;;;;47.40;20.30;;;;;;;1.67;43.70;99871.50;106132;1273;22590;-76
2022/03/15 00:53:22;;;;;;;40.70;18.50;;;;;;;1.64;43.77;99874.14;106237;1273;137856;-76
2022/03/15 00:55:50;;;;;;;46.30;19.30;;;;;;;1.62;43.97;99874.17;106187;1275;22550;-76
2022/03/15 00:58:16;;;;;;;43.80;19.10;;;;;;;1.60;43.92;99870.80;105990;1274;137677;-76
2022/03/15 01:00:48;;;;;;;42.80;20.10;;;;;;;1.57;44.14;99868.41;106334;1273;24451;-76
2022/03/15 01:03:16;;;;;;;48.30;19.50;;;;;;;1.56;44.47;99862.05;106527;1273;24246;-76
2022/03/15 01:05:43;;;;;;;46.50;19.50;;;;;;;1.55;44.46;99863.98;106113;1274;137721;-76
2022/03/15 01:08:13;;;;;;;43.70;19.10;;;;;;;1.54;44.54;99864.06;106475;1274;23366;-76
2022/03/15 01:10:41;;;;;;;49.40;19.80;;;;;;;1.54;44.68;99864.67;105879;1274;138523;-77
2022/03/15 01:13:08;;;;;;;53.30;22.20;;;;;;;1.50;44.94;99862.06;106357;1273;22563;-77
2022/03/15 01:15:46;;;;;;;49.10;21.10;;;;;;;1.45;45.29;99855.05;106202;1273;23712;-76
2022/03/15 01:18:13;;;;;;;50.00;22.50;;;;;;;1.39;45.36;99855.36;106404;1274;137610;-76
2022/03/15 01:20:42;;;;;;;46.50;19.90;;;;;;;1.32;45.20;99854.27;106499;1273;25452;-76
2022/03/15 01:23:08;;;;;;;45.20;22.00;;;;;;;1.27;45.40;99856.37;106344;1273;138749;-76
2022/03/15 01:25:37;;;;;;;46.10;21.00;;;;;;;1.22;46.11;99855.61;106223;1273;26693;-76
2022/03/15 01:28:04;;;;;;;45.80;21.80;;;;;;;1.16;46.51;99852.22;106178;1273;23510;-76
2022/03/15 01:30:31;;;;;;;48.40;21.50;;;;;;;1.10;47.18;99849.59;106241;1273;137477;-76
2022/03/15 01:32:58;;;;;;;49.60;20.90;;;;;;;1.04;47.49;99845.52;106045;1274;22576;-76
2022/03/15 01:35:24;;;;;;;43.60;20.80;;;;;;;0.98;47.52;99846.07;106199;1273;138295;-77
2022/03/15 01:37:51;;;;;;;47.00;20.80;;;;;;;0.92;47.46;99849.39;106392;1273;24314;-76
2022/03/15 01:40:17;;;;;;;47.00;20.70;;;;;;;0.88;47.56;99847.80;106125;1274;138239;-76
2022/03/15 01:42:44;;;;;;;45.20;20.30;;;;;;;0.84;47.85;99847.44;106407;1273;23015;-76
2022/03/15 01:45:10;;;;;;;42.20;20.70;;;;;;;0.80;47.89;99840.48;106240;1273;24401;-76
2022/03/15 01:47:39;;;;;;;42.50;18.70;;;;;;;0.77;47.69;99839.35;106225;1272;137523;-76
2022/03/15 01:50:06;;;;;;;42.30;19.20;;;;;;;0.74;47.62;99839.81;106034;1274;24219;-76
2022/03/15 01:52:33;;;;;;;42.80;19.30;;;;;;;0.70;47.85;99836.77;105893;1275;137842;-76
2022/03/15 01:54:59;;;;;;;48.50;21.00;;;;;;;0.68;47.98;99833.66;105965;1275;23197;-76
2022/03/15 01:57:25;;;;;;;47.80;20.90;;;;;;;0.64;48.14;99833.77;105965;1274;25319;-76
2022/03/15 01:59:53;;;;;;;38.40;18.20;;;;;;;0.62;47.56;99831.13;106152;1273;137547;-76
2022/03/15 02:02:19;;;;;;;40.40;18.90;;;;;;;0.61;47.72;99829.81;106194;1273;24221;-76
2022/03/15 02:04:46;;;;;;;43.20;19.40;;;;;;;0.60;47.95;99831.30;106037;1273;138359;-76
2022/03/15 02:07:13;;;;;;;34.80;15.20;;;;;;;0.59;47.88;99840.53;105993;1276;22702;-76
2022/03/15 02:09:40;;;;;;;49.30;21.30;;;;;;;0.57;50.01;99847.92;106190;1274;26123;-76
2022/03/15 02:12:08;;;;;;;52.10;22.90;;;;;;;0.46;51.97;99845.34;106129;1273;137805;-76
2022/03/15 02:14:35;;;;;;;53.80;22.00;;;;;;;0.36;51.27;99843.56;106086;1275;22763;-76
2022/03/15 02:17:01;;;;;;;51.80;22.00;;;;;;;0.31;50.79;99845.70;106242;1273;138058;-76
2022/03/15 02:19:29;;;;;;;48.80;22.00;;;;;;;0.28;50.47;99841.36;106266;1273;24422;-76
2022/03/15 02:21:59;;;;;;;50.20;20.90;;;;;;;0.26;49.98;99840.48;106440;1273;25236;-76
2022/03/15 02:24:26;;;;;;;52.60;21.40;;;;;;;0.25;49.85;99843.96;106081;1275;137610;-76
2022/03/15 02:26:52;;;;;;;39.20;17.50;;;;;;;0.24;49.56;99840.43;106187;1274;23594;-76
2022/03/15 02:29:20;;;;;;;43.50;18.30;;;;;;;0.24;49.71;99843.32;106262;1274;137731;-77
2022/03/15 02:31:47;;;;;;;44.70;19.30;;;;;;;0.23;49.87;99844.17;106346;1273;23124;-76
2022/03/15 02:34:16;;;;;;;48.10;20.40;;;;;;;0.21;51.13;99849.70;106110;1273;137726;-76
2022/03/15 02:36:43;;;;;;;53.20;21.50;;;;;;;0.17;52.39;99853.77;106048;1274;22546;-76
2022/03/15 02:39:09;;;;;;;49.60;22.20;;;;;;;0.12;52.44;99854.96;106335;1273;24280;-76
2022/03/15 02:41:36;;;;;;;47.80;20.90;;;;;;;0.08;51.96;99861.22;106230;1273;137724;-76
2022/03/15 02:44:03;;;;;;;47.70;22.30;;;;;;;0.06;51.61;99855.02;106454;1273;22573;-78
2022/03/15 02:46:31;;;;;;;53.10;20.10;;;;;;;0.04;52.09;99859.09;106273;1273;138295;-76
2022/03/15 02:48:59;;;;;;;47.30;20.20;;;;;;;0.03;51.74;99859.93;106473;1273;22565;-77
2022/03/15 02:51:25;;;;;;;53.50;22.70;;;;;;;0.02;51.51;99859.79;106467;1273;22564;-76
2022/03/15 02:53:53;;;;;;;44.60;21.00;;;;;;;0.03;51.82;99864.39;106262;1273;137497;-76
2022/03/15 02:56:20;;;;;;;46.80;19.80;;;;;;;0.02;52.01;99869.63;106263;1273;22550;-75
2022/03/15 02:58:46;;;;;;;50.20;21.80;;;;;;;0.02;52.30;99871.27;106065;1274;137955;-78
2022/03/15 03:01:12;;;;;;;52.60;22.00;;;;;;;0.01;52.37;99874.03;106078;1273;24210;-78
2022/03/15 03:03:39;;;;;;;51.60;22.70;;;;;;;-0.01;52.48;99872.23;106487;1273;22734;-75
2022/03/15 03:06:05;;;;;;;53.40;24.00;;;;;;;-0.03;52.06;99869.31;106009;1273;139044;-75
2022/03/15 03:08:33;;;;;;;51.30;23.30;;;;;;;-0.04;52.44;99868.39;106275;1273;26596;-75
2022/03/15 03:11:02;;;;;;;57.60;23.40;;;;;;;-0.06;52.50;99868.73;106300;1273;138240;-76
2022/03/15 03:13:30;;;;;;;49.40;21.90;;;;;;;-0.07;52.33;99867.60;106125;1273;25359;-75
2022/03/15 03:16:12;;;;;;;56.60;22.00;;;;;;;-0.08;52.04;99868.37;106376;1273;22566;-75
2022/03/15 03:18:39;;;;;;;47.40;22.30;;;;;;;-0.07;51.97;99868.50;106145;1274;137716;-75
2022/03/15 03:21:06;;;;;;;49.70;21.40;;;;;;;-0.07;51.64;99866.54;106463;1273;22581;-77
2022/03/15 03:23:47;;;;;;;44.70;21.30;;;;;;;-0.05;51.74;99871.55;106131;1273;137792;-76
2022/03/15 03:26:13;;;;;;;52.10;21.90;;;;;;;-0.04;51.66;99871.63;106174;1273;22814;-76
2022/03/15 03:28:39;;;;;;;48.30;19.80;;;;;;;-0.03;51.91;99870.98;105884;1274;138014;-76
2022/03/15 03:31:09;;;;;;;44.20;19.00;;;;;;;-0.02;51.67;99871.77;106389;1273;22721;-76
2022/03/15 03:33:37;;;;;;;37.70;17.30;;;;;;;0.01;51.85;99867.74;106264;1276;25413;-76
2022/03/15 03:36:04;;;;;;;35.50;16.80;;;;;;;0.05;51.58;99869.03;106353;1273;138397;-76
2022/03/15 03:38:31;;;;;;;41.60;18.00;;;;;;;0.08;51.46;99861.23;106404;1273;22556;-76
2022/03/15 03:40:57;;;;;;;44.50;19.60;;;;;;;0.11;51.36;99860.03;106174;1274;137741;-76
2022/03/15 03:43:25;;;;;;;46.20;18.80;;;;;;;0.13;51.64;99858.98;106180;1273;22898;-76
2022/03/15 03:45:51;;;;;;;37.40;17.40;;;;;;;0.14;51.16;99856.70;106413;1273;22566;-76
2022/03/15 03:48:17;;;;;;;38.40;16.50;;;;;;;0.18;50.67;99857.03;106239;1274;137807;-76
2022/03/15 03:50:43;;;;;;;40.30;16.20;;;;;;;0.22;50.67;99849.39;106154;1274;22576;-75
2022/03/15 03:53:11;;;;;;;38.40;17.00;;;;;;;0.26;50.83;99845.59;106222;1274;138254;-76
2022/03/15 03:55:37;;;;;;;43.20;18.90;;;;;;;0.28;50.83;99851.48;106264;1273;23116;-76
2022/03/15 03:58:03;;;;;;;52.30;22.30;;;;;;;0.25;51.71;99850.94;106310;1274;22574;-76
2022/03/15 04:00:30;;;;;;;46.60;22.40;;;;;;;0.18;53.44;99843.70;106035;1274;138253;-76
2022/03/15 04:03:00;;;;;;;42.70;21.50;;;;;;;0.11;53.83;99841.71;106353;1275;23360;-76
2022/03/15 04:05:30;;;;;;;47.60;21.30;;;;;;;0.03;53.72;99839.98;106383;1274;137894;-76
2022/03/15 04:08:02;;;;;;;46.90;19.70;;;;;;;-0.05;53.69;99846.92;106110;1274;24275;-76
2022/03/15 04:10:32;;;;;;;48.90;20.10;;;;;;;-0.14;53.82;99852.88;106246;1273;138642;-76
2022/03/15 04:12:59;;;;;;;40.60;19.40;;;;;;;-0.19;53.80;99849.06;106282;1273;25381;-78
2022/03/15 04:15:25;;;;;;;45.00;19.80;;;;;;;-0.22;54.05;99852.19;106188;1273;22570;-77
2022/03/15 04:17:51;;;;;;;44.80;21.30;;;;;;;-0.25;54.38;99853.71;106272;1273;137897;-77
2022/03/15 04:20:19;;;;;;;49.30;21.70;;;;;;;-0.29;54.75;99861.91;106190;1274;24279;-77
2022/03/15 04:22:45;;;;;;;38.20;19.30;;;;;;;-0.34;54.78;99865.41;106189;1273;137968;-77
2022/03/15 04:25:11;;;;;;;42.60;18.80;;;;;;;-0.36;54.68;99865.99;106379;1273;25264;-77
2022/03/15 04:27:38;;;;;;;40.70;18.20;;;;;;;-0.37;54.53;99863.94;106177;1274;22727;-77
2022/03/15 04:30:05;;;;;;;43.30;20.50;;;;;;;-0.36;54.08;99866.48;106008;1273;138111;-77
2022/03/15 04:32:34;;;;;;;41.30;18.40;;;;;;;-0.33;53.91;99868.04;106377;1273;22634;-77
2022/03/15 04:35:01;;;;;;;48.20;20.30;;;;;;;-0.30;53.71;99863.43;106029;1273;138002;-77
2022/03/15 04:37:27;;;;;;;38.80;17.70;;;;;;;-0.24;53.66;99869.55;106223;1273;24260;-77
2022/03/15 04:39:53;;;;;;;48.80;19.10;;;;;;;-0.20;53.74;99866.64;106197;1273;25087;-77
2022/03/15 04:42:20;;;;;;;43.90;19.40;;;;;;;-0.16;53.39;99864.68;106019;1273;137715;-77
2022/03/15 04:44:47;;;;;;;44.90;19.30;;;;;;;-0.12;53.32;99862.20;106118;1273;23965;-77
2022/03/15 04:47:14;;;;;;;41.10;17.80;;;;;;;-0.09;53.20;99859.98;106004;1274;138428;-77
2022/03/15 04:49:43;;;;;;;51.40;21.40;;;;;;;-0.08;53.16;99859.63;106402;1274;24218;-77
2022/03/15 04:52:09;;;;;;;45.60;21.00;;;;;;;-0.05;53.34;99862.12;106316;1273;25369;-77
2022/03/15 04:54:36;;;;;;;40.00;18.30;;;;;;;-0.03;53.29;99858.84;106228;1273;137748;-77
2022/03/15 04:57:03;;;;;;;48.10;20.70;;;;;;;-0.01;53.41;99858.67;106600;1273;22570;-77
2022/03/15 04:59:29;;;;;;;41.40;20.20;;;;;;;-0.02;53.06;99856.30;106358;1273;137873;-77
2022/03/15 05:01:55;;;;;;;46.00;18.90;;;;;;;0.02;53.28;99853.89;106182;1273;22556;-77
2022/03/15 05:04:22;;;;;;;44.50;19.40;;;;;;;0.04;53.19;99851.09;106115;1273;137628;-77
2022/03/15 05:06:48;;;;;;;45.40;21.20;;;;;;;0.04;53.28;99854.50;106319;1273;22566;-77
2022/03/15 05:09:14;;;;;;;38.90;18.70;;;;;;;0.04;53.36;99852.02;106345;1273;25464;-77
2022/03/15 05:11:46;;;;;;;41.70;19.00;;;;;;;0.03;53.49;99853.45;106119;1273;137590;-77
2022/03/15 05:14:15;;;;;;;46.00;20.40;;;;;;;0.03;53.64;99862.41;106359;1273;25238;-77
2022/03/15 05:16:41;;;;;;;56.30;20.90;;;;;;;0.01;54.03;99862.08;106050;1274;138884;-77
2022/03/15 05:19:08;;;;;;;55.20;23.90;;;;;;;-0.03;55.01;99863.43;106119;1273;24419;-77
2022/03/15 05:21:34;;;;;;;58.50;23.50;;;;;;;-0.08;55.50;99861.83;106277;1273;24270;-77
2022/03/15 05:24:01;;;;;;;50.20;21.20;;;;;;;-0.14;55.65;99859.16;106107;1273;137811;-77
2022/03/15 05:26:27;;;;;;;52.50;21.60;;;;;;;-0.18;55.43;99852.58;106227;1273;22543;-78
2022/03/15 05:28:53;;;;;;;48.40;21.30;;;;;;;-0.24;55.73;99847.20;105918;1274;138706;-77
2022/03/15 05:31:22;;;;;;;47.10;20.10;;;;;;;-0.25;55.86;99850.48;106194;1273;22632;-76
2022/03/15 05:33:52;;;;;;;41.40;17.70;;;;;;;-0.28;55.66;99856.30;106394;1273;24374;-76
2022/03/15 05:36:19;;;;;;;41.10;18.30;;;;;;;-0.28;55.41;99860.45;106247;1273;137856;-79
2022/03/15 05:38:46;;;;;;;40.90;18.70;;;;;;;-0.27;55.28;99866.55;106252;1273;22547;-78
2022/03/15 05:41:12;;;;;;;37.20;17.20;;;;;;;-0.25;55.44;99866.91;106256;1273;138442;-76
2022/03/15 05:43:39;;;;;;;41.30;17.50;;;;;;;-0.21;55.30;99867.63;106062;1273;22609;-76
2022/03/15 05:46:09;;;;;;;32.60;15.30;;;;;;;-0.16;55.23;99861.10;106392;1273;22583;-76
2022/03/15 05:48:35;;;;;;;34.60;15.70;;;;;;;-0.09;54.95;99861.58;106381;1273;138298;-76
2022/03/15 05:51:01;;;;;;;36.20;16.80;;;;;;;-0.02;54.76;99867.30;106172;1273;23968;-76
2022/03/15 05:53:44;;;;;;;34.80;15.50;;;;;;;0.07;54.40;99864.70;106187;1273;137882;-76
2022/03/15 05:56:11;;;;;;;34.60;15.70;;;;;;;0.16;54.08;99857.77;106097;1274;25321;-78
2022/03/15 05:58:37;;;;;;;36.30;16.70;;;;;;;0.25;54.27;99859.44;106373;1273;138093;-76
2022/03/15 06:01:04;;;;;;;43.80;19.20;;;;;;;0.31;54.39;99860.12;106384;1273;22686;-76
2022/03/15 06:03:30;;;;;;;38.30;18.40;;;;;;;0.35;54.44;99858.46;106150;1273;24441;-76
2022/03/15 06:05:57;;;;;;;40.30;18.60;;;;;;;0.41;54.34;99862.83;106284;1273;137566;-78
2022/03/15 06:08:23;;;;;;;39.80;20.20;;;;;;;0.46;54.06;99862.17;106010;1273;22566;-76
2022/03/15 06:10:50;;;;;;;44.10;21.30;;;;;;;0.51;54.08;99860.90;105950;1274;138144;-76
2022/03/15 06:13:17;;;;;;;37.70;17.70;;;;;;;0.56;54.12;99862.98;106312;1273;24235;-76
2022/03/15 06:15:43;;;;;;;45.90;20.80;;;;;;;0.61;54.17;99869.29;106213;1273;24219;-77
2022/03/15 06:18:10;;;;;;;46.20;20.30;;;;;;;0.66;54.53;99876.30;106057;1273;138285;-77
2022/03/15 06:20:39;;;;;;;41.20;18.70;;;;;;;0.68;55.44;99876.71;106244;1273;22544;-77
2022/03/15 06:23:06;;;;;;;45.80;19.90;;;;;;;0.69;54.73;99870.90;106029;1273;138190;-77
2022/03/15 06:25:34;;;;;;;44.30;18.90;;;;;;;0.72;54.11;99862.00;106526;1273;23302;-77
2022/03/15 06:28:00;;;;;;;43.50;18.90;;;;;;;0.77;54.33;99861.93;106234;1273;22547;-77
2022/03/15 06:30:27;;;;;;;39.90;18.40;;;;;;;0.82;54.18;99864.04;106069;1273;137663;-77
2022/03/15 06:32:54;;;;;;;45.80;19.60;;;;;;;0.88;54.01;99864.59;105932;1274;22657;-77
2022/03/15 06:35:21;;;;;;;48.80;22.40;;;;;;;0.94;54.07;99864.30;106133;1273;138056;-77
2022/03/15 06:37:50;;;;;;;43.80;21.10;;;;;;;1.01;54.68;99864.55;106076;1274;24263;-77
2022/03/15 06:40:21;;;;;;;47.90;21.20;;;;;;;1.09;55.01;99861.33;106136;1273;25372;-77
2022/03/15 06:42:52;;;;;;;46.70;21.00;;;;;;;1.16;54.93;99861.91;105942;1274;137228;-77
2022/03/15 06:45:19;;;;;;;50.30;19.90;;;;;;;1.22;54.79;99867.70;106134;1276;22544;-77
2022/03/15 06:47:46;;;;;;;46.40;20.10;;;;;;;1.30;54.98;99867.30;105830;1276;138417;-77
2022/03/15 06:50:13;;;;;;;50.70;20.90;;;;;;;1.38;55.22;99866.39;105852;1276;22560;-77
2022/03/15 06:52:42;;;;;;;48.80;20.50;;;;;;;1.46;55.47;99867.86;105811;1276;138456;-77
2022/03/15 06:55:10;;;;;;;59.30;22.40;;;;;;;1.55;55.22;99868.59;106144;1273;22557;-77
2022/03/15 06:57:37;;;;;;;51.50;19.70;;;;;;;1.64;55.02;99870.73;106137;1273;25184;-77
2022/03/15 07:00:10;;;;;;;46.90;20.00;;;;;;;1.75;54.69;99870.20;106025;1273;137901;-77
2022/03/15 07:02:37;;;;;;;50.10;20.60;;;;;;;1.88;54.69;99869.67;106062;1274;24374;-77
2022/03/15 07:05:04;;;;;;;46.20;19.00;;;;;;;2.00;55.06;99871.36;106145;1275;137850;-77
2022/03/15 07:07:31;;;;;;;54.60;22.70;;;;;;;2.11;55.02;99873.61;106298;1273;22819;-77
2022/03/15 07:09:59;;;;;;;48.30;20.90;;;;;;;2.20;54.92;99865.65;106455;1273;24302;-77
2022/03/15 07:12:25;;;;;;;53.50;21.40;;;;;;;2.29;54.85;99865.17;106235;1273;137614;-77
2022/03/15 07:14:52;;;;;;;50.90;22.30;;;;;;;2.38;54.67;99863.91;106212;1273;25328;-77
2022/03/15 07:17:19;;;;;;;50.50;21.50;;;;;;;2.46;54.95;99863.88;106050;1274;138453;-77
2022/03/15 07:19:47;;;;;;;55.70;22.80;;;;;;;2.56;54.88;99862.73;106539;1273;25316;-77
2022/03/15 07:22:28;;;;;;;55.90;20.50;;;;;;;2.65;54.53;99866.62;106044;1276;22564;-77
2022/03/15 07:24:54;;;;;;;46.50;19.90;;;;;;;2.76;54.21;99870.59;105998;1273;137410;-78
2022/03/15 07:27:21;;;;;;;45.20;19.40;;;;;;;2.85;53.96;99870.30;106188;1274;22701;-78
2022/03/15 07:29:48;;;;;;;47.70;19.90;;;;;;;2.96;53.73;99870.63;106111;1273;137537;-76
2022/03/15 07:32:15;;;;;;;47.80;18.90;;;;;;;3.07;53.20;99872.33;106245;1273;22562;-78
2022/03/15 07:34:41;;;;;;;50.50;19.70;;;;;;;3.18;52.79;99870.48;105856;1274;138787;-77
2022/03/15 07:37:08;;;;;;;49.00;19.80;;;;;;;3.29;52.47;99867.39;106029;1274;25370;-75
2022/03/15 07:39:35;;;;;;;46.40;19.80;;;;;;;3.41;51.93;99865.02;106150;1273;22593;-74
2022/03/15 07:42:01;;;;;;;38.70;17.40;;;;;;;3.52;51.54;99858.27;106233;1273;137755;-75
2022/03/15 07:44:34;;;;;;;38.80;17.50;;;;;;;3.63;51.09;99853.61;106304;1273;25278;-75
2022/03/15 07:47:00;;;;;;;45.80;20.00;;;;;;;3.76;50.75;99856.20;106034;1276;137912;-75
2022/03/15 07:49:27;;;;;;;40.30;18.50;;;;;;;3.89;50.55;99856.45;106256;1272;22551;-74
2022/03/15 07:51:54;;;;;;;47.20;20.60;;;;;;;4.01;50.31;99859.83;106346;1273;22548;-75
2022/03/15 07:54:35;;;;;;;44.60;19.70;;;;;;;4.15;49.85;99853.19;106230;1273;138015;-75
2022/03/15 07:57:02;;;;;;;35.60;17.70;;;;;;;4.30;49.54;99852.46;106015;1276;24321;-75
2022/03/15 07:59:35;;;;;;;32.80;16.40;;;;;;;4.43;49.24;99851.73;106212;1276;138170;-74
2022/03/15 08:02:04;;;;;;;35.30;18.40;;;;;;;4.57;48.49;99850.68;106209;1273;22559;-74
2022/03/15 08:04:34;;;;;;;42.20;18.80;;;;;;;4.71;48.77;99852.52;106389;1273;22697;-75
2022/03/15 08:07:16;;;;;;;38.10;16.20;;;;;;;4.87;48.75;99845.20;106101;1274;157719;-74
2022/03/15 08:09:48;;;;;;;41.30;19.60;;;;;;;5.00;48.67;99848.42;106099;1274;22535;-75
2022/03/15 08:12:18;;;;;;;37.30;19.20;;;;;;;5.14;48.45;99849.56;106104;1274;138003;-74
2022/03/15 08:14:49;;;;;;;37.30;18.90;;;;;;;5.25;48.13;99843.73;106013;1274;22566;-74
2022/03/15 08:17:16;;;;;;;43.80;19.50;;;;;;;5.38;48.02;99844.45;106020;1274;137793;-75
2022/03/15 08:19:42;;;;;;;44.10;19.20;;;;;;;5.49;47.72;99842.39;105997;1274;24260;-75
2022/03/15 08:22:09;;;;;;;41.30;18.90;;;;;;;5.62;47.54;99844.34;106103;1276;25399;-78
2022/03/15 08:24:36;;;;;;;41.60;18.90;;;;;;;5.75;47.06;99837.45;105744;1276;137775;-77
2022/03/15 08:27:03;;;;;;;43.80;19.60;;;;;;;5.88;46.88;99833.23;105975;1276;22547;-75
2022/03/15 08:29:31;;;;;;;38.30;19.00;;;;;;;6.00;46.56;99832.91;105965;1276;140175;-76
2022/03/15 08:32:01;;;;;;;43.30;20.00;;;;;;;6.13;46.05;99836.05;106106;1276;22716;-76
2022/03/15 08:34:37;;;;;;;39.90;18.20;;;;;;;6.28;45.89;99826.05;106603;1276;22522;-76
2022/03/15 08:37:05;;;;;;;39.40;18.40;;;;;;;6.45;45.65;99827.07;106700;1276;137883;-76
2022/03/15 08:39:33;;;;;;;34.80;16.50;;;;;;;6.61;44.86;99821.52;106229;1276;24227;-77
2022/03/15 08:42:03;;;;;;;;;;;;;;;6.80;43.83;99820.47;106239;1276;137738;-76
2022/03/15 08:44:35;;;;;;;31.50;15.10;;;;;;;6.97;43.86;99816.77;106485;1276;22565;-76
2022/03/15 08:47:29;;;;;;;31.40;16.50;;;;;;;7.17;43.29;99814.70;106298;1276;137981;-76
2022/03/15 08:49:56;;;;;;;31.20;14.60;;;;;;;7.32;42.83;99814.59;106466;1275;25320;-76
2022/03/15 08:52:38;;;;;;;27.10;13.80;;;;;;;7.47;42.36;99808.63;106360;1276;22548;-77
2022/03/15 08:55:06;;;;;;;31.30;15.20;;;;;;;7.62;42.13;99804.45;106007;1276;138179;-77
2022/03/15 08:57:45;;;;;;;31.20;14.40;;;;;;;7.78;41.82;99801.28;106432;1276;25326;-77
2022/03/15 09:00:34;;;;;;;22.90;14.30;;;;;;;7.98;41.47;99798.80;106225;1276;138192;-77
2022/03/15 09:03:02;;;;;;;28.50;13.20;;;;;;;8.14;41.13;99794.22;106021;1276;25669;-77
2022/03/15 09:05:31;;;;;;;30.30;14.80;;;;;;;8.34;40.89;99787.52;106059;1276;138144;-77
2022/03/15 09:07:59;;;;;;;25.20;13.40;;;;;;;8.52;40.67;99788.69;105854;1276;25672;-77
2022/03/15 09:10:26;;;;;;;24.80;14.00;;;;;;;8.70;40.00;99780.06;106278;1276;24308;-77
2022/03/15 09:12:55;;;;;;;31.60;14.80;;;;;;;8.85;39.92;99780.35;105921;1276;137550;-77
2022/03/15 09:15:38;;;;;;;26.00;15.00;;;;;;;9.01;39.76;99782.01;105663;1276;464653;-77
2022/03/15 09:18:05;;;;;;;25.00;12.80;;;;;;;9.17;39.41;99780.11;105806;1277;138722;-77
2022/03/15 09:20:32;;;;;;;32.00;13.80;;;;;;;9.28;39.27;99771.67;106080;1274;25484;-79
2022/03/15 09:22:59;;;;;;;30.20;13.30;;;;;;;9.40;38.88;99767.35;105949;1276;138533;-77
2022/03/15 09:25:26;;;;;;;23.30;12.70;;;;;;;9.52;39.47;99768.05;105981;1276;25517;-77
2022/03/15 09:27:55;;;;;;;28.10;14.90;;;;;;;9.66;38.95;99756.70;106176;1274;23860;-77
2022/03/15 09:30:30;;;;;;;22.10;12.80;;;;;;;9.77;38.74;99759.71;106355;1274;137821;-77
2022/03/15 09:32:58;;;;;;;23.50;13.80;;;;;;;9.90;38.95;99751.66;106055;1274;25387;-77
2022/03/15 09:35:24;;;;;;;27.50;14.10;;;;;;;10.03;38.36;99747.05;105892;1274;138019;-78
2022/03/15 09:37:52;;;;;;;34.00;15.80;;;;;;;10.16;38.53;99746.75;106093;1274;22602;-77
2022/03/15 09:40:25;;;;;;;28.00;14.80;;;;;;;10.30;38.41;99747.79;106229;1274;24257;-77
2022/03/15 09:43:02;;;;;;;27.60;14.80;;;;;;;10.42;37.87;99748.52;105986;1274;138470;-77
2022/03/15 09:45:45;;;;;;;31.40;14.80;;;;;;;10.54;37.47;99743.42;105981;1276;26599;-77
2022/03/15 09:48:17;;;;;;;27.70;14.90;;;;;;;10.64;37.29;99736.90;106183;1274;137773;-77
2022/03/15 09:50:48;;;;;;;28.80;14.70;;;;;;;10.75;37.55;99735.19;106189;1274;22566;-77
2022/03/15 09:53:16;;;;;;;29.90;14.40;;;;;;;10.89;37.22;99730.08;106017;1276;138405;-77
2022/03/15 09:55:47;;;;;;;25.50;15.00;;;;;;;10.99;36.65;99728.80;106241;1274;25342;-77
2022/03/15 09:58:19;;;;;;;29.30;15.60;;;;;;;11.08;36.44;99726.89;106021;1274;29433;-77
2022/03/15 10:00:50;;;;;;;27.60;16.20;;;;;;;11.18;36.96;99719.95;106050;1276;138079;-77
2022/03/15 10:03:18;;;;;;;31.70;17.80;;;;;;;11.28;36.74;99712.05;106090;1276;23332;-78
2022/03/15 10:05:46;;;;;;;28.40;17.10;;;;;;;11.38;37.09;99711.23;106195;1276;138044;-78
2022/03/15 10:08:13;;;;;;;29.20;16.10;;;;;;;11.49;36.63;99704.33;105990;1274;23409;-78
2022/03/15 10:10:41;;;;;;;32.80;17.50;;;;;;;11.57;36.59;99705.13;105998;1274;22699;-76
2022/03/15 10:13:22;;;;;;;21.20;14.00;;;;;;;11.66;36.93;99701.48;105921;1274;138048;-77
2022/03/15 10:16:03;;;;;;;29.80;16.60;;;;;;;11.76;36.76;99694.56;105987;1274;22571;-77
2022/03/15 10:18:30;;;;;;;26.10;14.60;;;;;;;11.88;36.23;99689.56;105852;1274;137972;-77
2022/03/15 10:20:57;;;;;;;24.00;13.60;;;;;;;11.96;35.68;99686.58;105998;1274;25462;-77
2022/03/15 10:23:32;;;;;;;27.20;13.70;;;;;;;12.06;35.53;99685.17;105866;1274;138561;-76
2022/03/15 10:25:59;;;;;;;18.90;12.20;;;;;;;12.11;35.21;99680.41;106074;1278;24438;-77
2022/03/15 10:28:27;;;;;;;21.50;12.10;;;;;;;12.22;35.72;99679.39;106018;1274;22701;-76
2022/03/15 10:30:54;;;;;;;23.30;13.10;;;;;;;12.36;36.01;99670.91;105872;1275;138185;-77
2022/03/15 10:33:21;;;;;;;20.40;11.70;;;;;;;12.51;35.61;99672.06;106403;1274;25331;-77
2022/03/15 10:35:49;;;;;;;19.70;11.00;;;;;;;12.64;35.40;99669.73;105927;1274;138539;-76
2022/03/15 10:38:18;;;;;;;20.20;12.20;;;;;;;12.77;35.72;99667.75;106016;1275;22700;-76
2022/03/15 10:40:51;;;;;;;25.00;11.40;;;;;;;12.92;35.35;99664.23;106072;1274;25450;-76
2022/03/15 10:43:24;;;;;;;16.50;10.10;;;;;;;13.04;34.95;99658.65;106022;1274;138570;-76
2022/03/15 10:45:58;;;;;;;16.70;10.30;;;;;;;13.17;34.63;99653.72;106175;1274;25249;-77
2022/03/15 10:48:39;;;;;;;18.70;11.00;;;;;;;13.29;34.47;99643.63;105785;1275;138046;-77
2022/03/15 10:51:10;;;;;;;17.00;10.60;;;;;;;13.37;34.23;99638.22;106016;1274;24441;-76
2022/03/15 10:53:42;;;;;;;17.40;9.90;;;;;;;13.45;34.45;99634.50;106031;1274;138048;-76
2022/03/15 10:56:13;;;;;;;20.60;10.60;;;;;;;13.57;34.35;99638.28;105962;1275;22649;-77
2022/03/15 10:58:55;;;;;;;15.70;10.50;;;;;;;13.63;33.99;99633.59;106072;1274;22557;-76
2022/03/15 11:01:24;;;;;;;17.50;10.00;;;;;;;13.70;33.97;99629.56;105931;1275;137764;-76
2022/03/15 11:04:04;;;;;;;18.70;10.00;;;;;;;13.77;33.94;99632.21;106609;1274;22611;-76
2022/03/15 11:06:40;;;;;;;12.30;9.00;;;;;;;13.85;33.92;99628.08;105847;1274;139545;-75
2022/03/15 11:09:39;;;;;;;14.60;9.00;;;;;;;13.94;33.80;99622.91;106068;1276;22546;-76
2022/03/15 11:12:21;;;;;;;18.50;10.70;;;;;;;13.99;33.63;99620.90;105932;1277;137764;-75
2022/03/15 11:14:49;;;;;;;15.40;9.70;;;;;;;14.06;33.67;99614.98;105921;1277;22590;-77
2022/03/15 11:17:16;;;;;;;17.00;10.30;;;;;;;14.14;33.75;99611.33;105952;1276;142099;-75
2022/03/15 11:20:03;;;;;;;14.80;10.20;;;;;;;14.24;33.73;99607.80;106066;1277;22861;-75